CSL Assiniboine — VCKQ — position and weather

sailwx.info

Track history (hours):
 
Tides and Currents Weather Stations Pressure Air Temp Water Temp Dewpoint Dewpoint Depression Visibility Wind Speed Wind Dir Waves Ship Positions

CSL Assiniboine

Last reported at 2018-Jun-19 04:00 UTC. Time now 2018-Jun-19 04:11 UTC.
Position N 46°51' W 091°37'.

Length 225 m; draft 6.9 m.

Type: Cargo ship. MMSI: 316001633.

Date/timePositionNaut miles runAvg speedWind from/ knotsBaromVisibWave heightAir tempDewpointWater temp
2018-Jun-19 04:00N 46°51' W 091°37'7911.2
2018-Jun-18 21:00N 47°18' W 089°48'2020.3 180 / 81018.010.8 19.1 7.4
2018-Jun-18 20:00N 47°18' W 089°18'90 9.9 330 / 21018.010.8 20.8 7.8
2018-Jun-18 11:00N 47°18' W 087°06'3511.6 330 / 51013.0 0.0 13.7 7.3
2018-Jun-18 08:00N 47°06' W 086°18'1413.7 030 / 131011.0 0.0 14.4 7.3
2018-Jun-18 07:00N 47°00' W 086°00'95 7.3 020 / 131012.0 0.3 9.0 8.0
2018-Jun-17 18:00N 46°12' W 084°00'3713.0 150 / 131015.0 2.2 24.018.0
2018-Jun-17 15:07N 45°39' W 083°36'211.9
2018-Jun-17 14:57N 45°37' W 083°34'511.8
2018-Jun-17 14:29N 45°32' W 083°30'611.8
2018-Jun-17 14:00N 45°28' W 083°25'6911.5
2018-Jun-17 08:00N 44°24' W 082°48'7 7.4 190 / 121017.0 0.5 21.316.2
2018-Jun-17 07:00N 44°18' W 082°42'2424.4 180 / 111017.0 0.5 19.017.0
2018-Jun-17 06:00N 43°54' W 082°36'98 7.6 170 / 81017.0 0.0 18.013.0
2018-Jun-16 17:00N 42°18' W 083°06'61 6.1 220 / 101018.0 26.018.0
2018-Jun-16 07:00N 42°00' W 081°48'164 6.3 140 / 81019.0 21.015.0
2018-Jun-15 05:00N 43°30' W 078°42'13011.8 010 / 131027.0 15.0 8.0
2018-Jun-14 18:00N 44°18' W 075°54'93 6.6 300 / 51022.0 19.010.0
2018-Jun-14 03:45N 45°14' W 074°09'10 7.6
2018-Jun-14 02:27N 45°18' W 073°56'1 1.2
2018-Jun-14 01:59N 45°18' W 073°56'1 1.5
2018-Jun-14 01:30N 45°19' W 073°55'0 0.5
2018-Jun-14 01:00N 45°19' W 073°55'1 2.5
2018-Jun-14 00:30N 45°20' W 073°54'3 6.5
2018-Jun-14 00:00N 45°22' W 073°50'4 9.0
2018-Jun-13 23:30N 45°24' W 073°45'3 6.3
2018-Jun-13 22:59N 45°25' W 073°40'2 4.6
2018-Jun-13 22:28N 45°24' W 073°37'2 3.8
2018-Jun-13 22:00N 45°24' W 073°34'0 0.6
2018-Jun-13 21:31N 45°24' W 073°34'0 0.7
2018-Jun-13 21:00N 45°24' W 073°33'2 3.8
2018-Jun-13 20:31N 45°25' W 073°31'3 5.8
2018-Jun-13 20:00N 45°28' W 073°30'2 3.9
2018-Jun-13 19:31N 45°30' W 073°31'0 0.1
2018-Jun-13 19:01N 45°30' W 073°31'1 0.8
2018-Jun-13 18:21N 45°30' W 073°31'0 0.1
2018-Jun-13 18:00N 45°30' W 073°31'169.6
2018-Jun-13 18:00N 45°30' W 073°30'17 6.8 180 / 31028.0 24.015.0
2018-Jun-13 15:27N 45°46' W 073°22'4 8.7
2018-Jun-13 15:00N 45°49' W 073°18'4 8.8
2018-Jun-13 14:30N 45°53' W 073°15'4 8.2
2018-Jun-13 14:00N 45°57' W 073°13'4 8.4
2018-Jun-13 13:30N 46°00' W 073°11'4 7.4
2018-Jun-13 13:00N 46°03' W 073°07'2 0.1
2018-Jun-12 04:04N 46°04' W 073°05'111.9
2018-Jun-12 04:00N 46°04' W 073°06'710.5
2018-Jun-12 03:22N 45°58' W 073°12'412.3
2018-Jun-12 03:00N 45°54' W 073°13'612.7
2018-Jun-12 02:30N 45°49' W 073°19'612.7
2018-Jun-12 02:00N 45°44' W 073°25'15 9.9
2018-Jun-12 00:33N 45°30' W 073°31'0 5.3
2018-Jun-12 00:30N 45°30' W 073°31'1 1.0
2018-Jun-12 00:00N 45°30' W 073°31'0 0.9
2018-Jun-11 23:31N 45°29' W 073°31'1 2.5
2018-Jun-11 23:01N 45°28' W 073°30'3 5.1
2018-Jun-11 22:30N 45°25' W 073°30'3 5.3
2018-Jun-11 22:00N 45°24' W 073°34'0 0.4
2018-Jun-11 21:31N 45°24' W 073°34'1 1.2
2018-Jun-11 21:01N 45°24' W 073°35'2 3.5
2018-Jun-11 20:30N 45°24' W 073°37'3 5.3
2018-Jun-11 20:00N 45°25' W 073°41'3 6.2
2018-Jun-11 19:30N 45°24' W 073°45'5 9.6
2018-Jun-11 19:00N 45°21' W 073°51'4 7.8
2018-Jun-11 18:30N 45°19' W 073°55'0 0.4
2018-Jun-11 18:00N 45°19' W 073°55'1 1.3
2018-Jun-11 17:30N 45°18' W 073°56'0 0.4
2018-Jun-11 17:00N 45°18' W 073°56'0 0.0
2018-Jun-11 16:30N 45°18' W 073°56'0 0.1
2018-Jun-11 16:00N 45°18' W 073°56'1 2.0
2018-Jun-11 15:20N 45°17' W 073°57'2 5.1
2018-Jun-11 14:58N 45°15' W 073°58'7 8.7
2018-Jun-11 14:09N 45°14' W 074°08'232 8.6
2018-Jun-10 11:00N 43°24' W 078°54'47 3.2 090 / 181030.027.0 20.012.5
2018-Jun-09 20:00N 42°42' W 079°24'4 4.4 030 / 101022.010.8 22.511.4
2018-Jun-09 19:00N 42°42' W 079°30'12911.7 040 / 141023.0 21.012.0
2018-Jun-09 08:00N 41°54' W 082°12'   070 / 121022.0 19.014.0
Track history (hours):
 
Tides and Currents Weather Stations Pressure Air Temp Water Temp Dewpoint Dewpoint Depression Visibility Wind Speed Wind Dir Waves Ship Positions

CSL Assiniboine

Last reported at 2018-Jun-19 04:00 UTC. Time now 2018-Jun-19 04:11 UTC.
Position N 46°51' W 091°37'.

Length 225 m; draft 6.9 m.

Type: Cargo ship. MMSI: 316001633.

Date/timePositionNaut miles runAvg speedWind from/ knotsBaromVisibWave heightAir tempDewpointWater temp
2018-Jun-19 04:00N 46°51' W 091°37'7911.2
2018-Jun-18 21:00N 47°18' W 089°48'2020.3 180 / 81018.010.8 19.1 7.4
2018-Jun-18 20:00N 47°18' W 089°18'90 9.9 330 / 21018.010.8 20.8 7.8
2018-Jun-18 11:00N 47°18' W 087°06'3511.6 330 / 51013.0 0.0 13.7 7.3
2018-Jun-18 08:00N 47°06' W 086°18'1413.7 030 / 131011.0 0.0 14.4 7.3
2018-Jun-18 07:00N 47°00' W 086°00'95 7.3 020 / 131012.0 0.3 9.0 8.0
2018-Jun-17 18:00N 46°12' W 084°00'3713.0 150 / 131015.0 2.2 24.018.0
2018-Jun-17 15:07N 45°39' W 083°36'211.9
2018-Jun-17 14:57N 45°37' W 083°34'511.8
2018-Jun-17 14:29N 45°32' W 083°30'611.8
2018-Jun-17 14:00N 45°28' W 083°25'6911.5
2018-Jun-17 08:00N 44°24' W 082°48'7 7.4 190 / 121017.0 0.5 21.316.2
2018-Jun-17 07:00N 44°18' W 082°42'2424.4 180 / 111017.0 0.5 19.017.0
2018-Jun-17 06:00N 43°54' W 082°36'98 7.6 170 / 81017.0 0.0 18.013.0
2018-Jun-16 17:00N 42°18' W 083°06'61 6.1 220 / 101018.0 26.018.0
2018-Jun-16 07:00N 42°00' W 081°48'164 6.3 140 / 81019.0 21.015.0
2018-Jun-15 05:00N 43°30' W 078°42'13011.8 010 / 131027.0 15.0 8.0
2018-Jun-14 18:00N 44°18' W 075°54'93 6.6 300 / 51022.0 19.010.0
2018-Jun-14 03:45N 45°14' W 074°09'10 7.6
2018-Jun-14 02:27N 45°18' W 073°56'1 1.2
2018-Jun-14 01:59N 45°18' W 073°56'1 1.5
2018-Jun-14 01:30N 45°19' W 073°55'0 0.5
2018-Jun-14 01:00N 45°19' W 073°55'1 2.5
2018-Jun-14 00:30N 45°20' W 073°54'3 6.5
2018-Jun-14 00:00N 45°22' W 073°50'4 9.0
2018-Jun-13 23:30N 45°24' W 073°45'3 6.3
2018-Jun-13 22:59N 45°25' W 073°40'2 4.6
2018-Jun-13 22:28N 45°24' W 073°37'2 3.8
2018-Jun-13 22:00N 45°24' W 073°34'0 0.6
2018-Jun-13 21:31N 45°24' W 073°34'0 0.7
2018-Jun-13 21:00N 45°24' W 073°33'2 3.8
2018-Jun-13 20:31N 45°25' W 073°31'3 5.8
2018-Jun-13 20:00N 45°28' W 073°30'2 3.9
2018-Jun-13 19:31N 45°30' W 073°31'0 0.1
2018-Jun-13 19:01N 45°30' W 073°31'1 0.8
2018-Jun-13 18:21N 45°30' W 073°31'0 0.1
2018-Jun-13 18:00N 45°30' W 073°31'169.6
2018-Jun-13 18:00N 45°30' W 073°30'17 6.8 180 / 31028.0 24.015.0
2018-Jun-13 15:27N 45°46' W 073°22'4 8.7
2018-Jun-13 15:00N 45°49' W 073°18'4 8.8
2018-Jun-13 14:30N 45°53' W 073°15'4 8.2
2018-Jun-13 14:00N 45°57' W 073°13'4 8.4
2018-Jun-13 13:30N 46°00' W 073°11'4 7.4
2018-Jun-13 13:00N 46°03' W 073°07'2 0.1
2018-Jun-12 04:04N 46°04' W 073°05'111.9
2018-Jun-12 04:00N 46°04' W 073°06'710.5
2018-Jun-12 03:22N 45°58' W 073°12'412.3
2018-Jun-12 03:00N 45°54' W 073°13'612.7
2018-Jun-12 02:30N 45°49' W 073°19'612.7
2018-Jun-12 02:00N 45°44' W 073°25'15 9.9
2018-Jun-12 00:33N 45°30' W 073°31'0 5.3
2018-Jun-12 00:30N 45°30' W 073°31'1 1.0
2018-Jun-12 00:00N 45°30' W 073°31'0 0.9
2018-Jun-11 23:31N 45°29' W 073°31'1 2.5
2018-Jun-11 23:01N 45°28' W 073°30'3 5.1
2018-Jun-11 22:30N 45°25' W 073°30'3 5.3
2018-Jun-11 22:00N 45°24' W 073°34'0 0.4
2018-Jun-11 21:31N 45°24' W 073°34'1 1.2
2018-Jun-11 21:01N 45°24' W 073°35'2 3.5
2018-Jun-11 20:30N 45°24' W 073°37'3 5.3
2018-Jun-11 20:00N 45°25' W 073°41'3 6.2
2018-Jun-11 19:30N 45°24' W 073°45'5 9.6
2018-Jun-11 19:00N 45°21' W 073°51'4 7.8
2018-Jun-11 18:30N 45°19' W 073°55'0 0.4
2018-Jun-11 18:00N 45°19' W 073°55'1 1.3
2018-Jun-11 17:30N 45°18' W 073°56'0 0.4
2018-Jun-11 17:00N 45°18' W 073°56'0 0.0
2018-Jun-11 16:30N 45°18' W 073°56'0 0.1
2018-Jun-11 16:00N 45°18' W 073°56'1 2.0
2018-Jun-11 15:20N 45°17' W 073°57'2 5.1
2018-Jun-11 14:58N 45°15' W 073°58'7 8.7
2018-Jun-11 14:09N 45°14' W 074°08'232 8.6
2018-Jun-10 11:00N 43°24' W 078°54'47 3.2 090 / 181030.027.0 20.012.5
2018-Jun-09 20:00N 42°42' W 079°24'4 4.4 030 / 101022.010.8 22.511.4
2018-Jun-09 19:00N 42°42' W 079°30'12911.7 040 / 141023.0 21.012.0
2018-Jun-09 08:00N 41°54' W 082°12'   070 / 121022.0 19.014.0

Dump ship's entire track history